createdAt,value
2022-11-26T00:00:41.978Z,-0.30
2022-11-26T00:03:11.131Z,-0.30
2022-11-26T00:05:39.854Z,-0.30
2022-11-26T00:08:23.397Z,-0.40
2022-11-26T00:10:52.522Z,-0.30
2022-11-26T00:13:22.792Z,-0.30
2022-11-26T00:15:50.710Z,-0.30
2022-11-26T00:18:18.481Z,-0.30
2022-11-26T00:20:49.907Z,-0.30
2022-11-26T00:23:25.271Z,-0.20
2022-11-26T00:25:59.892Z,-0.40
2022-11-26T00:28:33.431Z,-0.50
2022-11-26T00:31:03.047Z,-0.40
2022-11-26T00:33:30.802Z,-0.30
2022-11-26T00:36:25.727Z,-0.30
2022-11-26T00:39:00.660Z,-0.30
2022-11-26T00:41:33.005Z,-0.30
2022-11-26T00:44:00.126Z,-0.30
2022-11-26T00:46:27.408Z,-0.30
2022-11-26T00:48:54.438Z,-0.40
2022-11-26T00:51:25.406Z,-0.40
2022-11-26T00:53:55.472Z,-0.30
2022-11-26T00:56:24.158Z,-0.30
2022-11-26T00:58:51.533Z,-0.40
2022-11-26T01:01:26.426Z,-0.50
2022-11-26T01:03:53.802Z,-0.40
2022-11-26T01:06:35.742Z,-0.40
2022-11-26T01:09:05.116Z,-0.30
2022-11-26T01:11:32.502Z,-0.40
2022-11-26T01:13:59.551Z,-0.40
2022-11-26T01:16:34.815Z,-0.40
2022-11-26T01:19:02.671Z,-0.40
2022-11-26T01:21:31.118Z,-0.40
2022-11-26T01:23:58.037Z,-0.40
2022-11-26T01:26:28.119Z,-0.40
2022-11-26T01:28:55.785Z,0.00
2022-11-26T01:31:27.894Z,-0.40
2022-11-26T01:33:55.292Z,-0.30
2022-11-26T01:36:34.799Z,-0.40
2022-11-26T01:39:06.944Z,-0.40
2022-11-26T01:41:42.747Z,-0.30
2022-11-26T01:44:20.884Z,-0.50
2022-11-26T01:46:48.815Z,-0.40
2022-11-26T01:49:30.813Z,-0.40
2022-11-26T01:52:21.744Z,-0.40
2022-11-26T01:54:50.811Z,-0.40
2022-11-26T01:57:28.436Z,-0.40
2022-11-26T02:00:01.510Z,-0.30
2022-11-26T02:02:29.981Z,-0.40
2022-11-26T02:05:07.703Z,-0.50
2022-11-26T02:07:36.317Z,-0.50
2022-11-26T02:10:04.039Z,-0.50
2022-11-26T02:12:31.182Z,-0.40
2022-11-26T02:14:58.140Z,-0.40
2022-11-26T02:17:50.560Z,-0.40
2022-11-26T02:20:34.803Z,-0.40
2022-11-26T02:23:26.321Z,-0.40
2022-11-26T02:26:18.099Z,-0.40
2022-11-26T02:28:50.910Z,-0.50
2022-11-26T02:31:30.167Z,-0.50
2022-11-26T02:34:24.740Z,-0.50
2022-11-26T02:37:00.439Z,-0.50
2022-11-26T02:39:29.003Z,-0.50
2022-11-26T02:42:00.159Z,-0.60
2022-11-26T02:44:41.886Z,-0.60
2022-11-26T02:47:12.542Z,-0.40
2022-11-26T02:49:42.503Z,-0.30
2022-11-26T02:52:11.732Z,-0.30
2022-11-26T02:54:40.643Z,-0.40
2022-11-26T02:57:13.456Z,-0.30
2022-11-26T02:59:41.227Z,-0.20
2022-11-26T03:02:17.339Z,-0.30
2022-11-26T03:04:50.302Z,-0.30
2022-11-26T03:07:18.415Z,-0.30
2022-11-26T03:09:55.130Z,-0.40
2022-11-26T03:12:22.392Z,-0.40
2022-11-26T03:14:49.486Z,-0.40
2022-11-26T03:17:16.732Z,-0.40
2022-11-26T03:19:43.621Z,-0.40
2022-11-26T03:22:11.345Z,-0.40
2022-11-26T03:24:38.389Z,-0.50
2022-11-26T03:27:06.089Z,-0.40
2022-11-26T03:29:33.195Z,-0.40
2022-11-26T03:32:00.210Z,-0.50
2022-11-26T03:34:27.198Z,-0.40
2022-11-26T03:36:54.389Z,-0.50
2022-11-26T03:39:21.255Z,-0.40
2022-11-26T03:41:48.259Z,-0.50
2022-11-26T03:44:15.320Z,-0.50
2022-11-26T03:46:42.389Z,-0.40
2022-11-26T03:49:09.339Z,-0.40
2022-11-26T03:51:37.470Z,-0.30
2022-11-26T03:54:04.563Z,-0.40
2022-11-26T03:56:31.562Z,-0.30
2022-11-26T03:58:58.555Z,-0.30
2022-11-26T04:01:25.968Z,-0.30
2022-11-26T04:03:52.964Z,-0.20
2022-11-26T04:06:19.939Z,-0.50
2022-11-26T04:08:46.947Z,-0.50
2022-11-26T04:11:14.005Z,-0.50
2022-11-26T04:13:40.830Z,-0.50
2022-11-26T04:16:08.333Z,-0.50
2022-11-26T04:18:35.306Z,-0.60
2022-11-26T04:21:02.258Z,-0.50
2022-11-26T04:23:29.234Z,-0.60
2022-11-26T04:25:56.166Z,-0.70
2022-11-26T04:28:23.030Z,-0.60
2022-11-26T04:30:50.112Z,-0.70
2022-11-26T04:33:17.073Z,-0.70
2022-11-26T04:35:44.209Z,-0.70
2022-11-26T04:38:11.090Z,-0.70
2022-11-26T04:40:38.097Z,-0.60
2022-11-26T04:43:05.236Z,-0.70
2022-11-26T04:45:32.186Z,-0.70
2022-11-26T04:47:59.216Z,-0.70
2022-11-26T04:50:26.244Z,-0.60
2022-11-26T04:52:53.258Z,-0.40
2022-11-26T04:55:20.317Z,-0.70
2022-11-26T04:57:49.880Z,-0.70
2022-11-26T05:00:18.116Z,-0.70
2022-11-26T05:02:45.942Z,-0.70
2022-11-26T05:05:13.445Z,-0.60
2022-11-26T05:07:40.869Z,-0.60
2022-11-26T05:10:08.969Z,-0.60
2022-11-26T05:12:36.267Z,-0.50
2022-11-26T05:15:04.577Z,-0.60
2022-11-26T05:17:32.217Z,-0.70
2022-11-26T05:19:59.143Z,-0.70
2022-11-26T05:22:26.242Z,-0.70
2022-11-26T05:24:53.264Z,-0.70
2022-11-26T05:27:20.469Z,-0.60
2022-11-26T05:29:47.635Z,-0.70
2022-11-26T05:32:14.933Z,-0.80
2022-11-26T05:34:42.885Z,-0.80
2022-11-26T05:37:10.087Z,-0.90
2022-11-26T05:39:37.565Z,-0.90
2022-11-26T05:42:08.971Z,-0.90
2022-11-26T05:44:37.440Z,-1.00
2022-11-26T05:47:04.963Z,-1.00
2022-11-26T05:49:32.145Z,-1.00
2022-11-26T05:51:59.509Z,-1.10
2022-11-26T05:54:26.673Z,-1.00
2022-11-26T05:56:58.608Z,-0.90
2022-11-26T05:59:27.711Z,-0.60
2022-11-26T06:01:54.845Z,-0.90
2022-11-26T06:04:22.441Z,-0.80
2022-11-26T06:06:49.271Z,-0.70
2022-11-26T06:09:16.271Z,-0.60
2022-11-26T06:11:43.522Z,-0.60
2022-11-26T06:14:10.776Z,-0.60
2022-11-26T06:16:38.111Z,-0.60
2022-11-26T06:19:05.384Z,-0.50
2022-11-26T06:21:32.438Z,-0.40
2022-11-26T06:24:00.493Z,-0.40
2022-11-26T06:26:27.762Z,-0.40
2022-11-26T06:28:54.890Z,-0.40
2022-11-26T06:31:22.160Z,-0.40
2022-11-26T06:33:53.291Z,-0.30
2022-11-26T06:36:20.425Z,-0.40
2022-11-26T06:38:47.397Z,-0.40
2022-11-26T06:41:14.681Z,-0.40
2022-11-26T06:43:42.141Z,-0.30
2022-11-26T06:46:11.361Z,-0.40
2022-11-26T06:48:39.842Z,-0.30
2022-11-26T06:51:09.862Z,-0.30
2022-11-26T06:53:37.146Z,-0.30
2022-11-26T06:56:14.974Z,-0.30
2022-11-26T06:58:46.901Z,-0.30
2022-11-26T07:01:20.848Z,-0.30
2022-11-26T07:03:48.421Z,-0.20
2022-11-26T07:06:27.052Z,-0.20
2022-11-26T07:08:55.941Z,-0.20
2022-11-26T07:11:24.407Z,-0.20
2022-11-26T07:13:52.250Z,-0.20
2022-11-26T07:16:19.732Z,-0.10
2022-11-26T07:18:51.658Z,-0.10
2022-11-26T07:21:19.754Z,0.00
2022-11-26T07:23:47.478Z,0.00
2022-11-26T07:26:15.725Z,0.00
2022-11-26T07:28:43.779Z,0.00
2022-11-26T07:31:19.318Z,0.00
2022-11-26T07:33:47.477Z,0.10
2022-11-26T07:36:21.494Z,0.20
2022-11-26T07:38:49.631Z,0.20
2022-11-26T07:41:19.871Z,0.40
2022-11-26T07:43:47.542Z,0.30
2022-11-26T07:46:17.924Z,0.40
2022-11-26T07:48:45.920Z,0.40
2022-11-26T07:51:27.898Z,0.40
2022-11-26T07:53:56.533Z,-0.60
2022-11-26T07:56:23.685Z,0.40
2022-11-26T07:58:51.372Z,0.50
2022-11-26T08:01:22.418Z,0.50
2022-11-26T08:03:51.282Z,0.40
2022-11-26T08:06:20.991Z,0.40
2022-11-26T08:08:48.595Z,0.40
2022-11-26T08:11:20.907Z,0.40
2022-11-26T08:13:48.844Z,0.50
2022-11-26T08:16:16.305Z,0.50
2022-11-26T08:18:43.315Z,0.60
2022-11-26T08:21:10.902Z,0.50
2022-11-26T08:23:38.662Z,0.50
2022-11-26T08:26:23.830Z,0.60
2022-11-26T08:28:55.179Z,0.70
2022-11-26T08:31:25.182Z,0.80
2022-11-26T08:33:52.964Z,0.80
2022-11-26T08:36:20.272Z,0.90
2022-11-26T08:38:47.871Z,0.80
2022-11-26T08:41:15.334Z,0.90
2022-11-26T08:44:05.799Z,1.00
2022-11-26T08:46:30.114Z,1.10
2022-11-26T08:48:58.068Z,1.10
2022-11-26T08:51:27.123Z,1.00
2022-11-26T08:53:54.276Z,1.20
2022-11-26T08:56:21.621Z,1.00
2022-11-26T08:58:49.180Z,0.80
2022-11-26T09:01:19.570Z,1.60
2022-11-26T09:03:51.216Z,0.90
2022-11-26T09:06:20.041Z,0.80
2022-11-26T09:09:06.315Z,0.70
2022-11-26T09:11:37.061Z,0.70
2022-11-26T09:14:04.656Z,0.80
2022-11-26T09:16:32.592Z,0.80
2022-11-26T09:19:01.206Z,0.90
2022-11-26T09:21:29.544Z,0.90
2022-11-26T09:23:56.610Z,0.90
2022-11-26T09:26:25.205Z,0.90
2022-11-26T09:28:52.968Z,1.10
2022-11-26T09:31:20.918Z,0.70
2022-11-26T09:33:48.594Z,0.70
2022-11-26T09:36:16.769Z,0.70
2022-11-26T09:38:44.317Z,0.60
2022-11-26T09:41:14.815Z,0.70
2022-11-26T09:43:57.281Z,0.70
2022-11-26T09:47:15.610Z,0.80
2022-11-26T09:50:01.392Z,0.80
2022-11-26T09:52:47.719Z,0.90
2022-11-26T09:55:20.626Z,1.00
2022-11-26T09:57:59.977Z,1.00
2022-11-26T10:00:32.509Z,1.10
2022-11-26T10:02:59.867Z,1.30
2022-11-26T10:06:01.588Z,1.40
2022-11-26T10:08:43.836Z,1.40
2022-11-26T10:11:25.766Z,1.20
2022-11-26T10:14:04.498Z,1.40
2022-11-26T10:16:46.189Z,1.50
2022-11-26T10:19:48.586Z,1.50
2022-11-26T10:22:56.957Z,1.60
2022-11-26T10:25:28.490Z,1.50
2022-11-26T10:27:59.814Z,1.40
2022-11-26T10:30:32.196Z,1.40
2022-11-26T10:35:38.594Z,1.30
2022-11-26T10:38:08.579Z,1.30
2022-11-26T10:40:36.401Z,1.20
2022-11-26T10:43:08.882Z,1.00
2022-11-26T10:46:02.587Z,0.90
2022-11-26T10:48:31.845Z,1.00
2022-11-26T10:51:04.571Z,1.10
2022-11-26T10:53:47.236Z,1.00
2022-11-26T10:56:19.109Z,1.10
2022-11-26T10:58:48.205Z,1.10
2022-11-26T11:01:16.243Z,1.10
2022-11-26T11:04:10.539Z,1.00
2022-11-26T11:06:42.415Z,1.00
2022-11-26T11:09:29.399Z,1.00
2022-11-26T11:12:11.364Z,1.00
2022-11-26T11:14:43.002Z,1.00
2022-11-26T11:17:38.810Z,1.00
2022-11-26T11:20:17.880Z,0.90
2022-11-26T11:22:46.081Z,0.70
2022-11-26T11:25:42.717Z,0.80
2022-11-26T11:28:12.752Z,0.80
2022-11-26T11:30:41.718Z,0.80
2022-11-26T11:33:27.029Z,0.80
2022-11-26T11:35:59.687Z,0.20
2022-11-26T11:38:29.338Z,0.90
2022-11-26T11:40:56.515Z,1.00
2022-11-26T11:43:25.555Z,0.90
2022-11-26T11:46:23.309Z,1.00
2022-11-26T11:49:10.528Z,1.00
2022-11-26T11:51:52.853Z,1.00
2022-11-26T11:54:25.607Z,0.90
2022-11-26T11:57:08.433Z,0.80
2022-11-26T12:00:13.515Z,0.90
2022-11-26T12:03:05.401Z,1.10
2022-11-26T12:05:55.290Z,0.80
2022-11-26T12:08:35.043Z,0.70
2022-11-26T12:11:34.572Z,0.90
2022-11-26T12:14:06.670Z,0.80
2022-11-26T12:16:39.220Z,0.80
2022-11-26T12:19:21.385Z,0.90
2022-11-26T12:21:54.503Z,0.80
2022-11-26T12:24:49.955Z,0.90
2022-11-26T12:27:25.843Z,0.80
2022-11-26T12:30:02.147Z,0.80
2022-11-26T12:32:44.867Z,0.70
2022-11-26T12:35:20.962Z,0.70
2022-11-26T12:37:53.379Z,0.60
2022-11-26T12:40:38.478Z,0.50
2022-11-26T12:43:26.290Z,0.60
2022-11-26T12:46:11.414Z,0.70
2022-11-26T12:48:56.873Z,0.70
2022-11-26T12:51:27.381Z,0.60
2022-11-26T12:54:25.144Z,0.60
2022-11-26T12:57:22.131Z,0.70
2022-11-26T12:59:53.840Z,0.60
2022-11-26T13:02:40.130Z,0.60
2022-11-26T13:05:08.585Z,0.60
2022-11-26T13:07:55.816Z,0.60
2022-11-26T13:10:37.217Z,0.50
2022-11-26T13:13:52.067Z,0.40
2022-11-26T13:16:45.880Z,0.50
2022-11-26T13:19:18.478Z,0.70
2022-11-26T13:22:05.041Z,0.40
2022-11-26T13:24:40.072Z,0.40
2022-11-26T13:27:14.457Z,0.30
2022-11-26T13:29:44.636Z,0.30
2022-11-26T13:32:33.635Z,0.30
2022-11-26T13:35:53.835Z,0.10
2022-11-26T13:38:36.367Z,0.10
2022-11-26T13:41:26.378Z,0.10
2022-11-26T13:44:15.604Z,0.00
2022-11-26T13:46:54.017Z,0.10
2022-11-26T13:49:40.827Z,0.10
2022-11-26T13:52:43.701Z,0.00
2022-11-26T13:55:25.763Z,0.10
2022-11-26T13:57:58.047Z,0.00
2022-11-26T14:00:30.266Z,-0.10
2022-11-26T14:03:00.378Z,-0.10
2022-11-26T14:05:49.206Z,-0.10
2022-11-26T14:08:43.296Z,0.50
2022-11-26T14:11:12.077Z,0.00
2022-11-26T14:13:40.670Z,-0.10
2022-11-26T14:16:11.834Z,-0.10
2022-11-26T14:18:54.355Z,-0.20
2022-11-26T14:21:23.878Z,-0.20
2022-11-26T14:23:53.571Z,-0.20
2022-11-26T14:26:34.284Z,-0.10
2022-11-26T14:29:07.529Z,-0.20
2022-11-26T14:31:37.715Z,-0.20
2022-11-26T14:34:39.966Z,-0.10
2022-11-26T14:37:32.430Z,-0.10
2022-11-26T14:40:05.313Z,0.00
2022-11-26T14:42:33.522Z,-0.10
2022-11-26T14:45:05.681Z,-0.10
2022-11-26T14:47:33.939Z,-0.10
2022-11-26T14:50:07.448Z,-0.20
2022-11-26T14:52:37.345Z,-0.20
2022-11-26T14:55:19.024Z,-0.20
2022-11-26T14:57:51.825Z,-0.30
2022-11-26T15:00:25.886Z,-0.30
2022-11-26T15:02:54.589Z,-0.20
2022-11-26T15:05:27.773Z,-0.30
2022-11-26T15:08:03.204Z,-0.30
2022-11-26T15:11:02.219Z,-0.40
2022-11-26T15:13:45.139Z,-0.30
2022-11-26T15:16:31.425Z,-0.30
2022-11-26T15:19:00.362Z,-0.30
2022-11-26T15:21:28.409Z,-0.30
2022-11-26T15:23:59.262Z,-0.30
2022-11-26T15:26:32.918Z,-0.30
2022-11-26T15:29:01.194Z,0.00
2022-11-26T15:31:46.646Z,-0.40
2022-11-26T15:34:15.852Z,-0.50
2022-11-26T15:36:43.937Z,-0.50
2022-11-26T15:39:43.988Z,-0.50
2022-11-26T15:42:32.575Z,-0.60
2022-11-26T15:45:00.122Z,-0.30
2022-11-26T15:47:28.636Z,-0.40
2022-11-26T15:50:00.488Z,-0.40
2022-11-26T15:52:33.173Z,-0.40
2022-11-26T15:55:19.313Z,-1.70
2022-11-26T15:57:52.058Z,-0.40
2022-11-26T16:00:19.798Z,-0.40
2022-11-26T16:02:47.379Z,-0.50
2022-11-26T16:05:29.648Z,-0.50
2022-11-26T16:08:04.763Z,-0.50
2022-11-26T16:10:36.981Z,-0.50
2022-11-26T16:13:16.709Z,-0.50
2022-11-26T16:16:18.090Z,-0.50
2022-11-26T16:18:57.400Z,-0.40
2022-11-26T16:21:33.473Z,-0.50
2022-11-26T16:24:07.801Z,-0.50
2022-11-26T16:26:54.288Z,-0.50
2022-11-26T16:29:21.621Z,-0.30
2022-11-26T16:31:49.084Z,-0.60
2022-11-26T16:34:16.381Z,-0.60
2022-11-26T16:36:43.787Z,-0.60
2022-11-26T16:39:16.106Z,-0.70
2022-11-26T16:41:43.758Z,-0.70
2022-11-26T16:44:11.102Z,-0.70
2022-11-26T16:46:41.303Z,-0.70
2022-11-26T16:49:10.190Z,-0.60
2022-11-26T16:51:37.889Z,-0.70
2022-11-26T16:54:07.865Z,-0.70
2022-11-26T16:56:38.706Z,-0.70
2022-11-26T16:59:13.674Z,-0.80
2022-11-26T17:01:41.410Z,-0.80
2022-11-26T17:04:09.208Z,-0.70
2022-11-26T17:06:36.616Z,-0.60
2022-11-26T17:09:04.355Z,-0.70
2022-11-26T17:11:32.556Z,-0.70
2022-11-26T17:14:00.018Z,-0.70
2022-11-26T17:16:28.506Z,-0.60
2022-11-26T17:18:56.082Z,-0.60
2022-11-26T17:21:24.247Z,-0.60
2022-11-26T17:23:51.457Z,-0.60
2022-11-26T17:26:23.969Z,-0.60
2022-11-26T17:28:52.309Z,-0.70
2022-11-26T17:31:19.682Z,-0.50
2022-11-26T17:33:47.775Z,0.30
2022-11-26T17:36:18.678Z,-0.50
2022-11-26T17:38:47.456Z,0.60
2022-11-26T17:41:15.975Z,-0.50
2022-11-26T17:43:44.231Z,-0.60
2022-11-26T17:46:17.791Z,-0.70
2022-11-26T17:48:44.916Z,-0.70
2022-11-26T17:51:14.168Z,-0.60
2022-11-26T17:53:42.902Z,-0.70
2022-11-26T17:56:23.981Z,-0.60
2022-11-26T17:58:51.686Z,-0.50
2022-11-26T18:01:20.297Z,-0.40
2022-11-26T18:03:51.138Z,-0.50
2022-11-26T18:06:22.158Z,-0.50
2022-11-26T18:08:51.101Z,-0.40
2022-11-26T18:11:20.494Z,-0.50
2022-11-26T18:13:47.494Z,-0.50
2022-11-26T18:16:14.680Z,-0.60
2022-11-26T18:18:42.462Z,-0.60
2022-11-26T18:21:09.659Z,-0.70
2022-11-26T18:23:36.860Z,-0.80
2022-11-26T18:26:03.762Z,-0.90
2022-11-26T18:28:30.938Z,-0.90
2022-11-26T18:30:59.642Z,-0.80
2022-11-26T18:33:26.749Z,-0.70
2022-11-26T18:35:54.012Z,-0.70
2022-11-26T18:38:21.346Z,-0.70
2022-11-26T18:40:59.383Z,-0.70
2022-11-26T18:43:27.745Z,-0.70
2022-11-26T18:45:57.268Z,-0.50
2022-11-26T18:48:24.662Z,-2.00
2022-11-26T18:50:59.265Z,-0.70
2022-11-26T18:53:27.358Z,-0.70
2022-11-26T18:55:57.459Z,-0.90
2022-11-26T18:58:25.876Z,-0.60
2022-11-26T19:01:01.032Z,-0.60
2022-11-26T19:03:29.217Z,-0.60
2022-11-26T19:05:56.646Z,-0.70
2022-11-26T19:08:25.729Z,-0.60
2022-11-26T19:10:53.623Z,-0.50
2022-11-26T19:13:20.965Z,-0.70
2022-11-26T19:15:49.855Z,-0.80
2022-11-26T19:18:17.373Z,-0.80
2022-11-26T19:20:53.038Z,-0.80
2022-11-26T19:23:26.446Z,-0.60
2022-11-26T19:25:54.059Z,-0.40
2022-11-26T19:28:28.071Z,-0.80
2022-11-26T19:31:11.632Z,-0.90
2022-11-26T19:33:40.117Z,-0.90
2022-11-26T19:36:13.844Z,-0.90
2022-11-26T19:38:41.839Z,-0.90
2022-11-26T19:41:09.784Z,-0.90
2022-11-26T19:43:39.643Z,-0.90
2022-11-26T19:46:13.887Z,-0.90
2022-11-26T19:48:42.908Z,-0.90
2022-11-26T19:51:13.865Z,-0.90
2022-11-26T19:53:43.964Z,-0.90
2022-11-26T19:56:21.328Z,-0.90
2022-11-26T19:58:50.652Z,-0.80
2022-11-26T20:01:31.149Z,-0.80
2022-11-26T20:04:04.738Z,-0.90
2022-11-26T20:06:34.127Z,-0.60
2022-11-26T20:09:01.790Z,-0.70
2022-11-26T20:11:29.650Z,-1.00
2022-11-26T20:13:58.791Z,-1.00
2022-11-26T20:16:28.637Z,-0.90
2022-11-26T20:18:57.064Z,-0.70
2022-11-26T20:21:28.127Z,-0.90
2022-11-26T20:23:59.275Z,-0.80
2022-11-26T20:26:30.698Z,-0.80
2022-11-26T20:29:02.988Z,-0.90
2022-11-26T20:31:32.926Z,-0.90
2022-11-26T20:34:03.501Z,-0.90
2022-11-26T20:36:31.782Z,-0.90
2022-11-26T20:39:02.103Z,-0.90
2022-11-26T20:41:30.071Z,-0.90
2022-11-26T20:43:59.453Z,-0.90
2022-11-26T20:46:33.005Z,-0.90
2022-11-26T20:49:00.756Z,-0.90
2022-11-26T20:51:29.055Z,-0.90
2022-11-26T20:53:59.981Z,-0.90
2022-11-26T20:56:28.026Z,-0.90
2022-11-26T20:58:58.460Z,-1.00
2022-11-26T21:01:29.144Z,-0.80
2022-11-26T21:03:56.960Z,-0.80
2022-11-26T21:06:30.749Z,-1.00
2022-11-26T21:09:01.525Z,-1.00
2022-11-26T21:11:29.980Z,-1.10
2022-11-26T21:13:59.114Z,-1.00
2022-11-26T21:16:26.271Z,-1.00
2022-11-26T21:18:54.783Z,-0.70
2022-11-26T21:21:23.364Z,-0.80
2022-11-26T21:23:51.338Z,-0.80
2022-11-26T21:26:25.258Z,-0.80
2022-11-26T21:28:54.125Z,-0.90
2022-11-26T21:31:22.713Z,-0.90
2022-11-26T21:34:03.488Z,-0.90
2022-11-26T21:36:36.048Z,-1.00
2022-11-26T21:39:04.989Z,-1.00
2022-11-26T21:41:34.196Z,-0.90
2022-11-26T21:44:04.495Z,-1.10
2022-11-26T21:46:37.942Z,-1.00
2022-11-26T21:49:06.418Z,-1.40
2022-11-26T21:51:33.497Z,0.20
2022-11-26T21:54:00.710Z,-1.00
2022-11-26T21:56:31.060Z,-0.90
2022-11-26T21:58:59.601Z,-0.90
2022-11-26T22:01:35.342Z,-0.80
2022-11-26T22:04:17.535Z,0.10
2022-11-26T22:06:46.681Z,-1.00
2022-11-26T22:09:15.756Z,-1.00
2022-11-26T22:11:46.317Z,-1.00
2022-11-26T22:14:15.746Z,-1.00
2022-11-26T22:16:44.052Z,-1.10
2022-11-26T22:19:11.269Z,-1.10
2022-11-26T22:21:41.386Z,-1.20
2022-11-26T22:24:13.370Z,-1.10
2022-11-26T22:26:41.383Z,-1.00
2022-11-26T22:29:08.394Z,-1.10
2022-11-26T22:31:37.972Z,-0.60
2022-11-26T22:34:11.691Z,-1.00
2022-11-26T22:36:40.009Z,-1.00
2022-11-26T22:39:11.084Z,-0.90
2022-11-26T22:41:40.528Z,-0.90
2022-11-26T22:44:07.973Z,-1.00
2022-11-26T22:46:36.153Z,-1.20
2022-11-26T22:49:03.272Z,-1.10
2022-11-26T22:51:33.403Z,-1.10
2022-11-26T22:54:02.662Z,-1.10
2022-11-26T22:56:30.800Z,-1.10
2022-11-26T22:58:57.949Z,-1.00
2022-11-26T23:01:30.773Z,-1.00
2022-11-26T23:03:59.701Z,-1.00
2022-11-26T23:06:29.211Z,-1.70
2022-11-26T23:08:58.073Z,-1.00
2022-11-26T23:11:30.464Z,-0.70
2022-11-26T23:13:57.700Z,-1.00
2022-11-26T23:16:26.555Z,-1.00
2022-11-26T23:18:55.536Z,-1.10
2022-11-26T23:21:31.055Z,-1.00
2022-11-26T23:23:57.961Z,-1.00
2022-11-26T23:26:30.951Z,-1.00
2022-11-26T23:28:59.967Z,-1.10
2022-11-26T23:31:30.428Z,-0.90
2022-11-26T23:33:57.850Z,-1.00
2022-11-26T23:36:26.620Z,-1.00
2022-11-26T23:38:53.893Z,-1.00
2022-11-26T23:41:21.372Z,-1.00
2022-11-26T23:43:48.359Z,-1.10
2022-11-26T23:46:18.657Z,-1.00
2022-11-26T23:48:46.390Z,-0.50
2022-11-26T23:51:16.173Z,-1.00
2022-11-26T23:53:45.179Z,-1.20
2022-11-26T23:56:15.230Z,-1.10
2022-11-26T23:58:42.688Z,-1.10
